Time;durP1;ratioP1;P1;durP2;ratioP2;P2;SDS_P1;SDS_P2;PMS_P1;PMS_P2;Temp;Humidity;BMP_temperature;BMP_pressure;BME280_temperature;BME280_humidity;BME280_pressure;Samples;Min_cycle;Max_cycle;Signal;HPM_P1;HPM_P2
2022/04/17 00:01:55;;;;;;;3.40;3.20;;;6.50;73.80;;;;;;5056327;28;20299;-84
2022/04/17 00:04:20;;;;;;;3.60;3.30;;;6.50;74.30;;;;;;5056367;28;20172;-85
2022/04/17 00:06:46;;;;;;;3.57;3.27;;;6.60;74.10;;;;;;5056489;28;20187;-85
2022/04/17 00:09:12;;;;;;;3.30;3.00;;;6.60;74.70;;;;;;5055960;28;20184;-85
2022/04/17 00:11:38;;;;;;;3.67;3.47;;;6.60;74.60;;;;;;5056196;28;20168;-85
2022/04/17 00:14:04;;;;;;;3.30;3.10;;;6.70;74.10;;;;;;5056192;28;20179;-84
2022/04/17 00:16:30;;;;;;;4.07;3.07;;;6.70;74.60;;;;;;5054686;28;20171;-85
2022/04/17 00:18:56;;;;;;;2.87;2.70;;;6.60;73.60;;;;;;5056087;28;20183;-85
2022/04/17 00:21:22;;;;;;;2.73;2.63;;;6.70;70.80;;;;;;5055229;28;20247;-85
2022/04/17 00:23:49;;;;;;;3.13;2.73;;;6.60;70.80;;;;;;5054732;28;20175;-84
2022/04/17 00:26:15;;;;;;;2.93;2.70;;;6.60;70.50;;;;;;5056016;28;20499;-85
2022/04/17 00:28:40;;;;;;;2.70;2.60;;;6.50;70.60;;;;;;5056122;28;20185;-85
2022/04/17 00:31:06;;;;;;;2.80;2.70;;;6.60;69.70;;;;;;5055996;28;20679;-85
2022/04/17 00:33:32;;;;;;;2.80;2.60;;;6.70;68.80;;;;;;5056160;28;20203;-84
2022/04/17 00:35:58;;;;;;;3.43;3.13;;;6.70;68.50;;;;;;5055990;28;20578;-85
2022/04/17 00:38:24;;;;;;;2.60;2.50;;;6.70;68.70;;;;;;5054475;28;20211;-85
2022/04/17 00:40:50;;;;;;;3.23;2.90;;;6.70;68.70;;;;;;5054189;28;20199;-85
2022/04/17 00:43:32;;;;;;;3.20;2.70;;;6.60;67.80;;;;;;5055579;28;20182;-85
2022/04/17 00:45:59;;;;;;;2.60;2.40;;;6.60;67.30;;;;;;5054051;28;20669;-85
2022/04/17 00:48:25;;;;;;;2.20;2.10;;;6.70;67.40;;;;;;5055877;28;20630;-84
2022/04/17 00:50:54;;;;;;;2.50;2.20;;;6.60;66.90;;;;;;5055821;28;20526;-84
2022/04/17 00:53:24;;;;;;;2.50;2.40;;;6.70;66.80;;;;;;5055431;28;20164;-84
2022/04/17 00:55:50;;;;;;;3.03;2.70;;;6.70;66.30;;;;;;5055448;28;20697;-85
2022/04/17 00:58:17;;;;;;;2.50;2.40;;;6.70;66.50;;;;;;5055400;28;20214;-84
2022/04/17 01:00:44;;;;;;;2.57;2.47;;;6.70;66.80;;;;;;5055835;28;20294;-85
2022/04/17 01:03:13;;;;;;;2.07;2.07;;;6.70;66.60;;;;;;5058965;28;20206;-83
2022/04/17 01:05:43;;;;;;;2.20;2.10;;;6.70;66.90;;;;;;5059470;28;20173;-86
2022/04/17 01:08:12;;;;;;;2.77;2.60;;;6.80;66.40;;;;;;5060678;28;20175;-84
2022/04/17 01:10:38;;;;;;;2.60;2.23;;;6.80;66.70;;;;;;5058529;28;20229;-84
2022/04/17 01:13:05;;;;;;;2.70;2.60;;;6.80;66.50;;;;;;5068550;28;20174;-85
2022/04/17 01:15:31;;;;;;;2.80;2.70;;;6.70;66.90;;;;;;5069785;28;20180;-84
2022/04/17 01:17:57;;;;;;;2.60;2.40;;;6.60;66.90;;;;;;5054895;28;20187;-85
2022/04/17 01:20:23;;;;;;;2.30;2.20;;;6.60;67.50;;;;;;5055378;28;20288;-85
2022/04/17 01:22:50;;;;;;;2.57;2.47;;;6.80;68.30;;;;;;5053936;28;20270;-85
2022/04/17 01:28:05;;;;;;;2.67;2.50;;;6.70;68.90;;;;;;5058076;28;20646;-84
2022/04/17 01:30:30;;;;;;;2.40;2.23;;;6.70;68.50;;;;;;5058938;28;20171;-84
2022/04/17 01:32:56;;;;;;;2.80;2.60;;;6.70;68.10;;;;;;5056972;28;20176;-85
2022/04/17 01:35:22;;;;;;;2.93;2.37;;;6.70;68.50;;;;;;5055068;28;20180;-85
2022/04/17 01:37:49;;;;;;;3.23;2.97;;;6.70;70.00;;;;;;5054733;28;20179;-85
2022/04/17 01:40:15;;;;;;;3.07;2.87;;;6.70;70.40;;;;;;5054573;28;20184;-85
2022/04/17 01:42:41;;;;;;;2.97;2.70;;;6.60;70.30;;;;;;5054629;28;20185;-85
2022/04/17 01:45:09;;;;;;;3.57;2.93;;;6.60;71.20;;;;;;5054518;28;20175;-85
2022/04/17 01:47:35;;;;;;;2.93;2.73;;;6.50;72.00;;;;;;5053036;28;20591;-84
2022/04/17 01:50:01;;;;;;;2.80;2.60;;;6.50;72.00;;;;;;5054589;28;20179;-85
2022/04/17 01:52:27;;;;;;;2.97;2.67;;;6.50;72.50;;;;;;5054284;28;20201;-85
2022/04/17 01:54:53;;;;;;;4.00;3.00;;;6.50;73.30;;;;;;5054287;28;20174;-84
2022/04/17 01:57:19;;;;;;;3.53;2.90;;;6.40;71.00;;;;;;5054230;28;20174;-85
2022/04/17 01:59:44;;;;;;;3.60;3.30;;;6.40;72.50;;;;;;5052895;28;20175;-85
2022/04/17 02:02:10;;;;;;;3.33;3.13;;;6.30;72.00;;;;;;5053998;28;20703;-85
2022/04/17 02:04:36;;;;;;;3.10;2.90;;;6.20;72.20;;;;;;5054632;28;20256;-85
2022/04/17 02:07:04;;;;;;;3.47;3.27;;;6.30;72.20;;;;;;5054193;28;20191;-85
2022/04/17 02:09:30;;;;;;;4.27;3.83;;;6.30;72.70;;;;;;5056880;28;20218;-85
2022/04/17 02:11:56;;;;;;;4.13;3.73;;;6.30;72.80;;;;;;5074076;28;20174;-85
2022/04/17 02:14:22;;;;;;;3.93;3.63;;;6.20;72.80;;;;;;5073939;28;20513;-85
2022/04/17 02:16:48;;;;;;;4.13;3.70;;;6.10;73.20;;;;;;5074105;28;20168;-85
2022/04/17 02:19:14;;;;;;;5.40;3.50;;;6.10;74.20;;;;;;5073810;28;20174;-84
2022/04/17 02:21:40;;;;;;;3.87;3.40;;;6.10;75.10;;;;;;5073634;28;20290;-85
2022/04/17 02:24:06;;;;;;;3.70;3.40;;;6.10;74.50;;;;;;5073783;28;20634;-85
2022/04/17 02:26:33;;;;;;;4.57;3.77;;;6.10;75.00;;;;;;5073818;28;20171;-85
2022/04/17 02:29:00;;;;;;;3.80;3.50;;;6.10;75.20;;;;;;5074006;28;20195;-84
2022/04/17 02:31:26;;;;;;;4.07;3.77;;;6.00;74.80;;;;;;5074061;28;20171;-84
2022/04/17 02:33:53;;;;;;;3.90;3.60;;;6.00;75.00;;;;;;5073717;28;20172;-84
2022/04/17 02:36:20;;;;;;;3.90;3.50;;;5.90;75.10;;;;;;5074091;28;20170;-85
2022/04/17 02:38:46;;;;;;;5.00;3.73;;;5.90;74.40;;;;;;5073943;28;20170;-85
2022/04/17 02:41:12;;;;;;;3.80;3.50;;;5.90;74.90;;;;;;5073479;28;20209;-85
2022/04/17 02:43:37;;;;;;;4.27;3.50;;;5.70;75.00;;;;;;5073811;28;20177;-85
2022/04/17 02:46:03;;;;;;;3.20;3.00;;;5.70;75.10;;;;;;5073455;28;20534;-85
2022/04/17 02:48:29;;;;;;;3.83;3.60;;;5.70;75.00;;;;;;5073662;28;20173;-84
2022/04/17 02:50:58;;;;;;;4.80;3.53;;;5.80;75.00;;;;;;5073809;28;20213;-85
2022/04/17 02:53:24;;;;;;;3.50;3.30;;;5.80;75.00;;;;;;5073616;28;20175;-85
2022/04/17 02:55:51;;;;;;;3.60;3.40;;;5.80;75.50;;;;;;5075476;28;20175;-84
2022/04/17 02:58:17;;;;;;;3.60;3.40;;;5.80;75.90;;;;;;5084203;28;20178;-84
2022/04/17 03:06:12;;;;;;;3.60;3.30;;;5.70;76.50;;;;;;5073859;28;20169;-86
2022/04/17 03:08:40;;;;;;;3.90;3.60;;;5.70;77.00;;;;;;5073922;28;20594;-86
2022/04/17 03:11:05;;;;;;;4.13;3.77;;;5.60;77.10;;;;;;5073149;28;20595;-85
2022/04/17 03:13:31;;;;;;;4.07;3.77;;;5.50;77.10;;;;;;5073243;28;20171;-85
2022/04/17 03:15:57;;;;;;;4.03;3.50;;;5.50;77.60;;;;;;5073475;28;20263;-85
2022/04/17 03:18:23;;;;;;;4.20;3.90;;;5.40;77.00;;;;;;5073137;28;20241;-85
2022/04/17 03:20:49;;;;;;;3.80;3.50;;;5.40;77.00;;;;;;5073279;28;20225;-86
2022/04/17 03:23:14;;;;;;;3.70;3.40;;;5.40;77.70;;;;;;5073435;28;20177;-85
2022/04/17 03:25:41;;;;;;;4.50;4.10;;;5.40;78.00;;;;;;5055020;28;20645;-85
2022/04/17 03:28:08;;;;;;;4.73;3.87;;;5.30;77.80;;;;;;5073109;28;20199;-85
2022/04/17 03:30:33;;;;;;;3.90;3.70;;;5.30;78.20;;;;;;5073052;28;20196;-84
2022/04/17 03:33:01;;;;;;;4.57;3.80;;;5.30;78.80;;;;;;5073169;28;20222;-85
2022/04/17 03:35:27;;;;;;;5.37;4.20;;;5.40;78.70;;;;;;5073332;28;20215;-85
2022/04/17 03:37:57;;;;;;;4.50;4.07;;;5.30;79.10;;;;;;5077781;28;20255;-85
2022/04/17 03:40:23;;;;;;;4.20;3.80;;;5.20;78.70;;;;;;5073324;28;20202;-86
2022/04/17 03:42:49;;;;;;;4.30;3.90;;;5.10;79.00;;;;;;5073085;28;20185;-85
2022/04/17 03:45:16;;;;;;;4.10;3.80;;;5.10;79.30;;;;;;5073029;28;20173;-84
2022/04/17 03:47:43;;;;;;;4.43;4.10;;;5.10;79.50;;;;;;5072928;28;20170;-85
2022/04/17 03:50:09;;;;;;;4.40;4.10;;;5.00;79.80;;;;;;5072950;28;20530;-84
2022/04/17 03:52:43;;;;;;;3.83;3.50;;;4.90;79.50;;;;;;5072885;28;20266;-85
2022/04/17 03:55:10;;;;;;;3.63;3.43;;;4.90;80.00;;;;;;5072954;28;20253;-85
2022/04/17 03:57:36;;;;;;;4.07;3.77;;;4.90;80.50;;;;;;5075541;28;20311;-85
2022/04/17 04:00:05;;;;;;;4.50;3.80;;;4.90;80.30;;;;;;5058568;28;20185;-84
2022/04/17 04:02:31;;;;;;;4.63;4.27;;;4.90;80.60;;;;;;5076710;28;20573;-85
2022/04/17 04:04:57;;;;;;;4.37;4.00;;;4.80;81.00;;;;;;5076517;28;20224;-85
2022/04/17 04:07:24;;;;;;;3.87;3.67;;;4.70;80.70;;;;;;5076260;28;20173;-84
2022/04/17 04:09:50;;;;;;;4.20;3.90;;;4.60;80.80;;;;;;5076459;28;20226;-85
2022/04/17 04:12:16;;;;;;;4.43;3.90;;;4.50;81.50;;;;;;5076230;28;20179;-86
2022/04/17 04:14:42;;;;;;;4.30;3.90;;;4.50;81.50;;;;;;5076515;28;20243;-85
2022/04/17 04:17:09;;;;;;;4.20;3.53;;;4.50;81.80;;;;;;5074929;28;20252;-84
2022/04/17 04:19:34;;;;;;;4.40;4.00;;;4.50;81.40;;;;;;5076043;28;20176;-84
2022/04/17 04:22:00;;;;;;;4.33;3.53;;;4.40;81.40;;;;;;5076001;28;20232;-85
2022/04/17 04:24:26;;;;;;;4.97;4.40;;;4.40;81.60;;;;;;5058135;28;20168;-84
2022/04/17 04:29:37;;;;;;;4.07;3.70;;;4.30;81.60;;;;;;5076210;28;20700;-85
2022/04/17 04:32:04;;;;;;;4.00;3.70;;;4.30;81.70;;;;;;5075853;28;20625;-84
2022/04/17 04:34:30;;;;;;;3.67;3.30;;;4.30;82.20;;;;;;5076184;28;20180;-85
2022/04/17 04:36:56;;;;;;;3.60;3.40;;;4.00;82.60;;;;;;5075879;28;20174;-85
2022/04/17 04:39:21;;;;;;;3.90;3.67;;;4.00;83.00;;;;;;5057843;28;20175;-84
2022/04/17 04:41:47;;;;;;;3.90;3.70;;;4.00;82.80;;;;;;5075824;28;20216;-83
2022/04/17 04:44:13;;;;;;;5.67;3.77;;;4.00;82.70;;;;;;5077822;28;20168;-84
2022/04/17 04:46:39;;;;;;;3.47;3.23;;;4.00;82.90;;;;;;5086597;28;20177;-84
2022/04/17 04:51:50;;;;;;;3.90;3.60;;;4.00;83.30;;;;;;5082359;28;20177;-84
2022/04/17 04:54:16;;;;;;;4.27;3.90;;;4.10;83.70;;;;;;5079556;28;20679;-84
2022/04/17 04:56:41;;;;;;;4.90;4.40;;;4.20;83.70;;;;;;5058425;28;20181;-84
2022/04/17 04:59:09;;;;;;;4.47;4.07;;;4.20;83.90;;;;;;5075289;28;20175;-86
2022/04/17 05:01:35;;;;;;;4.43;4.10;;;4.10;83.20;;;;;;5057325;28;20218;-85
2022/04/17 05:04:01;;;;;;;4.90;4.40;;;4.10;83.20;;;;;;5075372;28;20183;-83
2022/04/17 05:06:26;;;;;;;4.40;4.00;;;4.10;83.10;;;;;;5075113;28;20225;-84
2022/04/17 05:08:52;;;;;;;4.47;4.07;;;4.10;83.20;;;;;;5077053;28;20183;-84
2022/04/17 05:11:20;;;;;;;4.97;4.47;;;4.00;82.80;;;;;;5083672;28;20226;-83
2022/04/17 05:13:45;;;;;;;4.90;4.30;;;4.30;83.10;;;;;;5075372;28;20168;-83
2022/04/17 05:16:13;;;;;;;4.40;4.03;;;4.40;83.00;;;;;;5074878;28;20209;-83
2022/04/17 05:18:38;;;;;;;4.30;4.00;;;4.50;83.70;;;;;;5075316;28;20180;-84
2022/04/17 05:21:05;;;;;;;3.93;3.63;;;4.60;82.50;;;;;;5057027;28;20213;-84
2022/04/17 05:23:32;;;;;;;4.00;3.70;;;4.60;81.90;;;;;;5074820;28;20633;-85
2022/04/17 05:25:59;;;;;;;3.97;3.77;;;4.60;81.90;;;;;;5075028;28;20167;-85
2022/04/17 05:28:27;;;;;;;3.73;3.53;;;4.70;82.00;;;;;;5075021;28;20258;-84
2022/04/17 05:30:54;;;;;;;3.80;3.50;;;4.80;81.90;;;;;;5074701;28;20628;-83
2022/04/17 05:33:23;;;;;;;4.07;3.70;;;4.90;82.50;;;;;;5074548;28;20173;-82
2022/04/17 05:35:50;;;;;;;3.97;3.57;;;5.00;81.40;;;;;;5074566;28;20190;-83
2022/04/17 05:38:16;;;;;;;3.73;3.50;;;5.20;80.90;;;;;;5074412;28;20195;-83
2022/04/17 05:40:52;;;;;;;4.10;3.80;;;5.30;80.70;;;;;;5074485;28;20241;-84
2022/04/17 05:43:19;;;;;;;4.30;3.93;;;5.30;80.30;;;;;;5074556;28;20594;-83
2022/04/17 05:45:46;;;;;;;4.20;3.80;;;5.50;80.70;;;;;;5074442;28;20217;-84
2022/04/17 05:48:13;;;;;;;5.30;3.83;;;5.70;81.00;;;;;;5074275;28;20174;-84
2022/04/17 05:50:40;;;;;;;6.00;4.43;;;5.70;81.20;;;;;;5074407;28;20175;-86
2022/04/17 05:53:06;;;;;;;3.80;3.50;;;5.80;80.40;;;;;;5074114;28;20170;-84
2022/04/17 05:55:32;;;;;;;3.90;3.60;;;5.90;81.10;;;;;;5074523;28;20257;-84
2022/04/17 05:57:58;;;;;;;4.00;3.60;;;5.90;80.10;;;;;;5074078;28;20692;-84
2022/04/17 06:00:24;;;;;;;3.90;3.60;;;6.00;79.10;;;;;;5074282;28;20258;-86
2022/04/17 06:02:50;;;;;;;3.50;3.30;;;6.00;77.90;;;;;;5074104;28;20694;-84
2022/04/17 06:05:17;;;;;;;3.93;3.60;;;6.10;77.70;;;;;;5074265;28;20186;-84
2022/04/17 06:07:43;;;;;;;3.63;3.43;;;6.20;78.00;;;;;;5058322;28;20175;-84
2022/04/17 06:10:11;;;;;;;5.27;3.50;;;6.20;78.40;;;;;;5076851;28;20223;-85
2022/04/17 06:12:38;;;;;;;3.33;3.13;;;6.30;78.00;;;;;;5074187;28;20169;-84
2022/04/17 06:15:05;;;;;;;3.50;3.17;;;6.50;76.40;;;;;;5074302;28;20178;-85
2022/04/17 06:17:43;;;;;;;3.50;3.20;;;6.50;75.40;;;;;;5073946;28;20246;-85
2022/04/17 06:20:13;;;;;;;3.07;2.87;;;6.70;76.70;;;;;;5073457;28;20175;-85
2022/04/17 06:22:40;;;;;;;4.77;2.93;;;6.80;74.90;;;;;;5073914;28;20184;-88
2022/04/17 06:25:08;;;;;;;10.83;3.10;;;6.90;73.00;;;;;;5073937;28;20171;-84
2022/04/17 06:27:38;;;;;;;2.50;2.27;;;6.90;73.80;;;;;;5073629;28;20244;-86
2022/04/17 06:30:12;;;;;;;2.30;2.20;;;7.00;69.40;;;;;;5073682;28;20176;-84
2022/04/17 06:32:41;;;;;;;2.53;2.33;;;7.10;69.00;;;;;;5073527;28;20255;-84
2022/04/17 06:35:09;;;;;;;2.20;2.10;;;7.10;69.30;;;;;;5074258;28;20657;-85
2022/04/17 06:38:01;;;;;;;2.67;2.50;;;7.10;69.60;;;;;;5073428;28;20172;-86
2022/04/17 06:40:33;;;;;;;2.40;2.20;;;7.20;68.90;;;;;;5055606;28;20649;-84
2022/04/17 06:43:05;;;;;;;2.67;2.30;;;7.30;68.90;;;;;;5073459;28;20163;-84
2022/04/17 06:45:33;;;;;;;2.70;2.50;;;7.40;68.80;;;;;;5056129;28;20169;-84
2022/04/17 06:48:15;;;;;;;2.70;2.10;;;7.50;68.50;;;;;;5073876;28;20182;-85
2022/04/17 06:50:44;;;;;;;2.37;2.17;;;7.60;66.90;;;;;;5074171;28;20612;-83
2022/04/17 06:53:10;;;;;;;2.30;2.20;;;7.70;66.50;;;;;;5075765;28;20170;-84
2022/04/17 06:55:36;;;;;;;2.40;2.30;;;7.70;66.10;;;;;;5073708;28;20198;-84
2022/04/17 06:58:02;;;;;;;2.63;2.27;;;7.80;65.40;;;;;;5073116;28;20164;-84
2022/04/17 07:00:28;;;;;;;2.40;2.30;;;7.80;64.10;;;;;;5073170;28;20172;-84
2022/04/17 07:02:53;;;;;;;2.63;2.40;;;7.80;64.30;;;;;;5072998;28;20638;-83
2022/04/17 07:05:19;;;;;;;2.40;2.20;;;7.90;64.10;;;;;;5073286;28;20174;-84
2022/04/17 07:07:45;;;;;;;2.47;2.37;;;7.90;63.40;;;;;;5073302;28;20858;-84
2022/04/17 07:10:11;;;;;;;2.83;2.63;;;7.90;63.30;;;;;;5073020;28;20234;-84
2022/04/17 07:12:37;;;;;;;2.30;2.20;;;8.00;63.20;;;;;;5073028;28;20207;-86
2022/04/17 07:15:06;;;;;;;2.40;2.20;;;8.10;64.20;;;;;;5073185;28;20202;-85
2022/04/17 07:17:39;;;;;;;2.70;2.50;;;8.20;63.70;;;;;;5072971;28;20266;-84
2022/04/17 07:20:07;;;;;;;2.50;2.40;;;8.30;64.20;;;;;;5073134;28;20181;-84
2022/04/17 07:22:33;;;;;;;2.10;2.00;;;8.40;63.30;;;;;;5054780;28;20266;-84
2022/04/17 07:25:01;;;;;;;2.50;2.30;;;8.30;63.10;;;;;;5073233;28;20177;-84
2022/04/17 07:27:34;;;;;;;2.40;2.30;;;8.50;62.20;;;;;;5055215;28;20276;-85
2022/04/17 07:30:00;;;;;;;2.43;2.33;;;8.60;62.00;;;;;;5073003;28;20173;-85
2022/04/17 07:32:25;;;;;;;2.30;2.20;;;8.60;62.30;;;;;;5077004;28;20177;-85
2022/04/17 07:34:51;;;;;;;3.27;2.40;;;8.80;62.30;;;;;;5077037;28;20526;-83
2022/04/17 07:37:27;;;;;;;3.47;2.37;;;8.80;62.40;;;;;;5077258;28;20170;-84
2022/04/17 07:39:53;;;;;;;3.07;2.30;;;9.00;62.70;;;;;;5058707;28;20185;-84
2022/04/17 07:42:20;;;;;;;2.40;2.13;;;9.00;61.80;;;;;;5076795;28;20236;-84
2022/04/17 07:44:48;;;;;;;2.70;2.50;;;9.10;63.00;;;;;;5076787;28;20261;-83
2022/04/17 07:47:15;;;;;;;4.47;2.30;;;9.20;63.30;;;;;;5058786;28;20190;-85
2022/04/17 07:49:41;;;;;;;2.33;2.13;;;9.30;63.70;;;;;;5076512;28;20180;-85
2022/04/17 07:52:07;;;;;;;2.67;2.37;;;9.30;63.50;;;;;;5076493;28;20189;-84
2022/04/17 07:54:33;;;;;;;2.47;2.27;;;9.40;63.60;;;;;;5076697;28;20200;-84
2022/04/17 07:56:59;;;;;;;2.20;2.10;;;9.40;62.00;;;;;;5076799;28;20237;-85
2022/04/17 07:59:25;;;;;;;2.27;2.17;;;9.40;62.90;;;;;;5076321;28;20195;-85
2022/04/17 08:02:01;;;;;;;2.67;1.90;;;9.40;60.20;;;;;;5076281;28;20245;-84
2022/04/17 08:04:27;;;;;;;2.00;1.90;;;9.50;59.40;;;;;;5076562;28;20155;-84
2022/04/17 08:06:54;;;;;;;2.17;1.97;;;9.40;58.20;;;;;;5077807;28;20204;-84
2022/04/17 08:09:20;;;;;;;2.60;1.97;;;9.40;57.60;;;;;;5075939;28;20219;-84
2022/04/17 08:11:51;;;;;;;1.90;1.80;;;9.60;57.70;;;;;;5076175;28;20170;-84
2022/04/17 08:14:18;;;;;;;2.03;1.93;;;9.60;57.60;;;;;;5076439;28;20229;-84
2022/04/17 08:16:44;;;;;;;1.93;1.83;;;9.60;57.30;;;;;;5076077;28;20174;-84
2022/04/17 08:19:10;;;;;;;2.00;1.90;;;9.70;57.10;;;;;;5057901;28;20227;-85
2022/04/17 08:21:36;;;;;;;2.30;2.20;;;9.70;57.30;;;;;;5076124;28;20315;-84
2022/04/17 08:24:02;;;;;;;1.70;1.70;;;9.80;57.40;;;;;;5076117;28;20576;-84
2022/04/17 08:26:28;;;;;;;2.00;1.90;;;9.80;56.90;;;;;;5075627;28;20234;-84
2022/04/17 08:28:53;;;;;;;2.07;1.97;;;9.80;56.20;;;;;;5075314;28;20182;-84
2022/04/17 08:31:19;;;;;;;2.00;1.90;;;9.90;57.00;;;;;;5080258;28;20183;-85
2022/04/17 08:33:45;;;;;;;1.77;1.47;;;10.00;53.70;;;;;;5091891;28;20206;-84
2022/04/17 08:36:12;;;;;;;1.80;1.70;;;10.00;53.20;;;;;;5095520;28;20193;-85
2022/04/17 08:38:38;;;;;;;2.60;2.00;;;10.00;53.70;;;;;;5081251;28;20173;-85
2022/04/17 08:41:07;;;;;;;1.73;1.63;;;10.10;52.70;;;;;;5075462;28;20304;-84
2022/04/17 08:43:33;;;;;;;1.60;1.50;;;10.20;53.00;;;;;;5074957;28;20208;-84
2022/04/17 08:45:58;;;;;;;1.77;1.47;;;10.20;51.50;;;;;;5076618;28;20181;-85
2022/04/17 08:48:26;;;;;;;1.70;1.60;;;10.10;51.80;;;;;;5077351;28;20186;-83
2022/04/17 08:50:53;;;;;;;2.73;1.87;;;10.20;51.10;;;;;;5079710;28;20626;-84
2022/04/17 08:53:20;;;;;;;1.40;1.40;;;10.20;50.80;;;;;;5081535;28;20181;-84
2022/04/17 08:55:47;;;;;;;1.90;1.80;;;10.30;51.20;;;;;;5080156;28;20225;-84
2022/04/17 08:58:13;;;;;;;2.03;1.70;;;10.40;52.10;;;;;;5082498;28;20177;-84
2022/04/17 09:00:40;;;;;;;3.13;1.67;;;10.50;51.00;;;;;;5059373;28;20615;-85
2022/04/17 09:03:09;;;;;;;1.93;1.73;;;10.60;51.20;;;;;;5075673;28;20221;-85
2022/04/17 09:05:37;;;;;;;2.00;1.90;;;10.60;51.60;;;;;;5075008;28;20235;-84
2022/04/17 09:08:17;;;;;;;1.37;1.37;;;10.70;50.70;;;;;;5081187;28;20648;-85
2022/04/17 09:10:57;;;;;;;1.67;1.63;;;10.80;50.30;;;;;;5075732;28;20301;-85
2022/04/17 09:13:33;;;;;;;1.80;1.53;;;10.80;50.40;;;;;;5075725;28;20606;-85
2022/04/17 09:16:03;;;;;;;1.70;1.60;;;10.90;49.40;;;;;;5076218;28;20526;-84
2022/04/17 09:18:33;;;;;;;1.60;1.50;;;11.00;49.50;;;;;;5075565;28;20174;-85
2022/04/17 09:21:01;;;;;;;3.13;1.80;;;11.00;48.80;;;;;;5075277;28;20191;-85
2022/04/17 09:23:33;;;;;;;2.33;1.90;;;11.10;49.70;;;;;;5082342;28;20261;-85
2022/04/17 09:26:00;;;;;;;1.53;1.40;;;11.20;49.30;;;;;;5075790;28;20175;-85
2022/04/17 09:28:32;;;;;;;2.37;1.40;;;11.30;49.80;;;;;;5056994;28;20182;-84
2022/04/17 09:30:59;;;;;;;2.03;1.50;;;11.40;50.40;;;;;;5074655;28;20194;-84
2022/04/17 09:33:36;;;;;;;1.70;1.60;;;11.50;49.40;;;;;;5074820;28;20171;-85
2022/04/17 09:36:02;;;;;;;1.80;1.70;;;11.40;48.20;;;;;;5074906;28;20239;-85
2022/04/17 09:38:32;;;;;;;2.07;1.60;;;11.30;48.40;;;;;;5074884;28;20175;-84
2022/04/17 09:41:13;;;;;;;1.50;1.40;;;11.30;48.40;;;;;;5056893;28;20745;-85
2022/04/17 09:43:39;;;;;;;1.70;1.60;;;11.30;49.60;;;;;;5075129;28;20229;-85
2022/04/17 09:46:07;;;;;;;1.57;1.47;;;11.50;50.10;;;;;;5075364;28;20562;-85
2022/04/17 09:48:40;;;;;;;1.63;1.53;;;11.40;50.80;;;;;;5075030;28;20229;-85
2022/04/17 09:51:26;;;;;;;2.10;1.90;;;11.30;51.10;;;;;;5074531;28;20579;-85
2022/04/17 09:54:00;;;;;;;1.37;1.37;;;11.40;51.30;;;;;;5074080;28;20263;-84
2022/04/17 09:56:34;;;;;;;1.90;1.80;;;11.40;51.50;;;;;;5074806;28;20195;-84
2022/04/17 09:59:14;;;;;;;1.53;1.53;;;11.40;51.60;;;;;;5076067;28;20169;-86
2022/04/17 10:01:40;;;;;;;2.43;2.00;;;11.30;51.40;;;;;;5056033;28;20604;-85
2022/04/17 10:04:06;;;;;;;1.60;1.60;;;11.30;51.80;;;;;;5073423;28;20190;-85
2022/04/17 10:06:34;;;;;;;1.77;1.67;;;11.40;52.50;;;;;;5055427;28;20190;-86
2022/04/17 10:09:01;;;;;;;1.70;1.60;;;11.50;52.00;;;;;;5074216;28;20573;-84
2022/04/17 10:11:29;;;;;;;1.90;1.80;;;11.50;51.20;;;;;;5056074;28;20223;-86
2022/04/17 10:13:57;;;;;;;1.70;1.60;;;11.50;51.30;;;;;;5074523;28;20256;-85
2022/04/17 10:16:24;;;;;;;1.83;1.73;;;11.70;51.50;;;;;;5074104;28;20265;-85
2022/04/17 10:18:50;;;;;;;1.47;1.47;;;11.80;50.30;;;;;;5074497;28;20168;-84
2022/04/17 10:21:21;;;;;;;2.43;1.43;;;11.90;50.30;;;;;;5073794;28;20299;-85
2022/04/17 10:23:50;;;;;;;1.60;1.50;;;11.90;51.10;;;;;;5076134;28;20625;-85
2022/04/17 10:26:19;;;;;;;1.67;1.60;;;11.90;50.50;;;;;;5075905;28;20195;-86
2022/04/17 10:28:50;;;;;;;1.73;1.63;;;11.90;49.20;;;;;;5081774;28;20191;-86
2022/04/17 10:31:19;;;;;;;2.43;1.80;;;12.00;49.60;;;;;;5091343;28;20153;-84
2022/04/17 10:34:15;;;;;;;1.60;1.50;;;12.10;48.50;;;;;;5079149;28;20170;-84
2022/04/17 10:37:03;;;;;;;1.73;1.50;;;12.10;49.30;;;;;;5075681;28;20247;-84
2022/04/17 10:39:38;;;;;;;1.50;1.40;;;12.10;48.20;;;;;;5075351;28;20156;-84
2022/04/17 10:42:07;;;;;;;1.40;1.40;;;12.10;47.40;;;;;;5074549;28;20657;-84
2022/04/17 10:44:37;;;;;;;1.40;1.40;;;12.00;47.90;;;;;;5073885;28;20173;-84
2022/04/17 10:47:05;;;;;;;1.80;1.70;;;12.20;49.30;;;;;;5073486;28;20177;-84
2022/04/17 10:49:32;;;;;;;1.73;1.63;;;12.20;49.40;;;;;;5073784;28;20175;-84
2022/04/17 10:51:59;;;;;;;1.80;1.70;;;12.30;49.70;;;;;;5073485;28;20173;-84
2022/04/17 10:54:45;;;;;;;2.57;1.50;;;12.30;48.50;;;;;;5062196;28;20180;-83
2022/04/17 10:57:11;;;;;;;2.10;1.70;;;12.10;49.10;;;;;;5087695;28;20227;-84
2022/04/17 10:59:37;;;;;;;1.73;1.63;;;12.20;49.60;;;;;;5088794;28;20231;-84
2022/04/17 11:02:21;;;;;;;1.80;1.70;;;12.20;48.30;;;;;;5089625;28;20205;-84
2022/04/17 11:04:53;;;;;;;3.27;1.70;;;12.20;48.30;;;;;;5075204;28;20523;-84
2022/04/17 11:07:26;;;;;;;2.13;1.90;;;12.20;48.30;;;;;;5080421;28;20171;-85
2022/04/17 11:10:07;;;;;;;1.93;1.83;;;12.10;48.60;;;;;;5080749;28;20223;-84
2022/04/17 11:12:46;;;;;;;2.40;2.30;;;12.20;49.40;;;;;;5080052;28;20713;-84
2022/04/17 11:15:12;;;;;;;2.30;2.10;;;12.30;49.10;;;;;;5080587;28;20190;-85
2022/04/17 11:17:39;;;;;;;2.90;1.90;;;12.40;49.40;;;;;;5080140;28;20212;-84
2022/04/17 11:20:07;;;;;;;2.03;1.60;;;12.40;49.40;;;;;;5080116;28;20584;-84
2022/04/17 11:22:38;;;;;;;2.03;1.80;;;12.50;50.10;;;;;;5079419;28;20688;-84
2022/04/17 11:25:06;;;;;;;1.47;1.40;;;12.50;48.20;;;;;;5080307;28;20206;-83
2022/04/17 11:27:31;;;;;;;1.57;1.47;;;12.40;49.50;;;;;;5079840;28;20183;-84
2022/04/17 11:29:58;;;;;;;1.87;1.73;;;12.40;50.00;;;;;;5079934;28;20246;-84
2022/04/17 11:32:26;;;;;;;1.87;1.70;;;12.50;49.70;;;;;;5061604;28;20645;-84
2022/04/17 11:34:52;;;;;;;2.13;2.03;;;12.40;49.10;;;;;;5080216;28;20176;-84
2022/04/17 11:37:26;;;;;;;1.80;1.70;;;12.40;50.00;;;;;;5080625;28;20165;-84
2022/04/17 11:39:53;;;;;;;1.83;1.73;;;12.50;49.50;;;;;;5061932;28;20182;-84
2022/04/17 11:42:19;;;;;;;1.50;1.40;;;12.50;49.30;;;;;;5063410;28;20574;-83
2022/04/17 11:44:48;;;;;;;2.23;1.70;;;12.30;48.20;;;;;;5089871;28;20178;-84
2022/04/17 11:47:18;;;;;;;1.67;1.57;;;12.30;48.80;;;;;;5074512;28;20175;-85
2022/04/17 11:49:45;;;;;;;1.53;1.53;;;12.30;48.50;;;;;;5090204;28;20180;-85
2022/04/17 11:52:12;;;;;;;1.70;1.60;;;12.30;48.90;;;;;;5062947;28;20272;-85
2022/04/17 11:54:39;;;;;;;2.17;1.50;;;12.40;48.60;;;;;;5080596;28;20244;-84
2022/04/17 11:57:07;;;;;;;1.70;1.60;;;12.70;48.60;;;;;;5080111;28;20174;-84
2022/04/17 11:59:49;;;;;;;1.77;1.70;;;12.80;48.70;;;;;;5080214;28;20251;-85
2022/04/17 12:02:16;;;;;;;1.80;1.70;;;12.80;47.90;;;;;;5079396;28;20199;-84
2022/04/17 12:04:50;;;;;;;1.53;1.53;;;12.90;48.70;;;;;;5079693;28;20208;-84
2022/04/17 12:07:24;;;;;;;3.43;1.60;;;13.00;48.80;;;;;;5079593;28;20175;-85
2022/04/17 12:10:01;;;;;;;1.70;1.60;;;13.10;48.10;;;;;;5079452;28;20216;-85
2022/04/17 12:12:36;;;;;;;1.73;1.50;;;13.20;48.20;;;;;;5079460;28;20165;-84
2022/04/17 12:15:05;;;;;;;2.30;1.50;;;13.00;46.80;;;;;;5061936;28;20204;-85
2022/04/17 12:17:32;;;;;;;1.80;1.60;;;12.90;47.50;;;;;;5076741;28;20179;-84
2022/04/17 12:19:58;;;;;;;1.30;1.30;;;13.00;47.60;;;;;;5076517;28;20202;-85
2022/04/17 12:22:26;;;;;;;1.97;1.77;;;13.10;48.70;;;;;;5058252;28;20604;-85
2022/04/17 12:24:52;;;;;;;1.93;1.83;;;13.10;48.10;;;;;;5058351;28;20182;-85
2022/04/17 12:27:19;;;;;;;1.60;1.50;;;13.00;47.60;;;;;;5058267;28;20182;-84
2022/04/17 12:29:52;;;;;;;2.53;1.60;;;12.90;47.40;;;;;;5058156;28;20179;-84
2022/04/17 12:32:23;;;;;;;2.40;1.60;;;12.90;47.80;;;;;;5075910;28;20213;-84
2022/04/17 12:35:03;;;;;;;1.57;1.47;;;13.00;47.70;;;;;;5076234;28;20174;-84
2022/04/17 12:37:32;;;;;;;1.73;1.63;;;13.10;47.90;;;;;;5077463;28;20640;-85
2022/04/17 12:40:20;;;;;;;1.77;1.63;;;13.10;47.60;;;;;;5077922;28;20164;-85
2022/04/17 12:42:47;;;;;;;1.40;1.40;;;13.20;47.00;;;;;;5079827;28;20198;-84
2022/04/17 12:45:24;;;;;;;2.80;1.60;;;13.10;47.00;;;;;;5078214;28;20179;-84
2022/04/17 12:48:07;;;;;;;1.53;1.43;;;13.00;47.30;;;;;;5079192;28;20198;-84
2022/04/17 12:50:33;;;;;;;1.30;1.23;;;13.00;47.00;;;;;;5079595;28;20168;-84
2022/04/17 12:53:00;;;;;;;1.77;1.67;;;13.20;47.60;;;;;;5078210;28;20174;-85
2022/04/17 12:55:37;;;;;;;1.33;1.33;;;13.30;47.60;;;;;;5067084;28;20190;-84
2022/04/17 12:58:03;;;;;;;1.77;1.40;;;13.40;47.10;;;;;;5093009;28;20148;-84
2022/04/17 13:00:30;;;;;;;1.53;1.43;;;13.40;46.00;;;;;;5073158;28;20180;-83
2022/04/17 13:03:16;;;;;;;1.60;1.50;;;13.40;46.50;;;;;;5093671;28;20268;-84
2022/04/17 13:05:42;;;;;;;1.60;1.50;;;13.50;45.80;;;;;;5084679;28;20170;-84
2022/04/17 13:08:09;;;;;;;1.50;1.50;;;13.40;46.60;;;;;;5080825;28;20171;-85
2022/04/17 13:10:39;;;;;;;1.60;1.50;;;13.40;47.00;;;;;;5076194;28;20717;-84
2022/04/17 13:13:05;;;;;;;1.90;1.60;;;13.40;47.40;;;;;;5057691;28;20183;-84